RYR6R EGSS-LEAM
Flight info
| Callsign | RYR6R |
|---|---|
| Flight time | N/A |
| Altitude | 33000 |
| Route | NUGBO M183 SILVA Q41 COWLY UT71 VAPID UN859 SOPIL DCT BALAN DCT LMG DCT PIMQO DCT AGN DCT ANETO N860 DOSEK |
| Aircraft | B738/M-SDE2E3FGHIRWXY/LB1 |
Departure
| Time | N/A |
|---|---|
| Airport | London Stansted Airport (EGSS) |
Arrival
| Time | 2026-04-28 10:55 |
|---|---|
| Airport | Almería Airport (LEAM) |
| Time | Latitude | Longitude | Altitude | Speed | Heading |
|---|---|---|---|---|---|
| 2026-04-28 10:50 | 36.94138 | -2.05460 | 3779 ft | 259 kts | 207° |
| 2026-04-28 10:50 | 36.92598 | -2.06614 | 3503 ft | 258 kts | 214° |
| 2026-04-28 10:50 | 36.91495 | -2.08350 | 3217 ft | 256 kts | 242° |
| 2026-04-28 10:51 | 36.90850 | -2.10409 | 2948 ft | 254 kts | 251° |
| 2026-04-28 10:51 | 36.90354 | -2.12506 | 2741 ft | 247 kts | 254° |
| 2026-04-28 10:51 | 36.89886 | -2.14513 | 2684 ft | 234 kts | 254° |
| 2026-04-28 10:51 | 36.89441 | -2.16369 | 2685 ft | 217 kts | 253° |
| 2026-04-28 10:52 | 36.89014 | -2.18129 | 2682 ft | 207 kts | 253° |
| 2026-04-28 10:52 | 36.88599 | -2.19832 | 2553 ft | 203 kts | 253° |
| 2026-04-28 10:52 | 36.88193 | -2.21491 | 2303 ft | 197 kts | 253° |
| 2026-04-28 10:52 | 36.87800 | -2.23098 | 2059 ft | 188 kts | 253° |
| 2026-04-28 10:53 | 36.87427 | -2.24621 | 1806 ft | 179 kts | 253° |
| 2026-04-28 10:53 | 36.87075 | -2.26058 | 1596 ft | 168 kts | 252° |
| 2026-04-28 10:53 | 36.86739 | -2.27433 | 1363 ft | 163 kts | 252° |
| 2026-04-28 10:53 | 36.86411 | -2.28770 | 1147 ft | 159 kts | 251° |
| 2026-04-28 10:54 | 36.86095 | -2.30060 | 940 ft | 156 kts | 251° |
| 2026-04-28 10:54 | 36.85781 | -2.31342 | 735 ft | 153 kts | 251° |
| 2026-04-28 10:54 | 36.85472 | -2.32604 | 531 ft | 151 kts | 251° |
| 2026-04-28 10:54 | 36.85165 | -2.33850 | 319 ft | 149 kts | 251° |
| 2026-04-28 10:55 | 36.84866 | -2.35083 | 119 ft | 147 kts | 251° |
| 2026-04-28 10:55 | 36.84571 | -2.36270 | 51 ft | 134 kts | 251° |
| 2026-04-28 10:55 | 36.84362 | -2.37128 | 50 ft | 74 kts | 252° |
| 2026-04-28 10:55 | 36.84254 | -2.37567 | 50 ft | 44 kts | 252° |
| 2026-04-28 10:56 | 36.84189 | -2.37884 | 50 ft | 28 kts | 275° |
| 2026-04-28 10:56 | 36.84209 | -2.38074 | 50 ft | 16 kts | 279° |
| 2026-04-28 10:56 | 36.84230 | -2.38185 | 50 ft | 11 kts | 321° |
| 2026-04-28 10:56 | 36.84286 | -2.38149 | 50 ft | 13 kts | 70° |
| 2026-04-28 10:57 | 36.84319 | -2.38015 | 50 ft | 19 kts | 73° |
| 2026-04-28 10:57 | 36.84359 | -2.37847 | 50 ft | 21 kts | 73° |
| 2026-04-28 10:57 | 36.84399 | -2.37683 | 50 ft | 17 kts | 73° |
| 2026-04-28 10:57 | 36.84430 | -2.37563 | 50 ft | 12 kts | 72° |
| 2026-04-28 10:58 | 36.84470 | -2.37486 | 50 ft | 12 kts | 354° |
| 2026-04-28 10:58 | 36.84529 | -2.37461 | 50 ft | 8 kts | 68° |
| 2026-04-28 10:58 | 36.84583 | -2.37452 | 50 ft | 11 kts | 342° |
| 2026-04-28 10:58 | 36.84617 | -2.37438 | 50 ft | 4 kts | 96° |
| 2026-04-28 10:59 | 36.84611 | -2.37415 | 50 ft | 2 kts | 114° |